Time,TemperatureF,DewpointF,PressureIn,WindDirection,WindDirectionDegrees,WindSpeedMPH,WindSpeedGustMPH,Humidity,HourlyPrecipIn,Conditions,Clouds,dailyrainin,SolarRadiationWatts/m^2,SoftwareType,DateUTC
2013-01-09 00:00:00,36.0,25.0,-100.00,NNE,22,10.0,-999.0,64,-99.99,,,-99.99,0.000000,,2013-01-09 05:00:00,
2013-01-09 00:43:00,36.0,25.0,-100.00,NNE,22,10.0,-999.0,64,-99.99,,,-99.99,0.000000,,2013-01-09 05:43:00,
2013-01-09 00:53:00,36.0,25.0,-100.00,NNE,22,10.0,-999.0,64,-99.99,,,-99.99,0.000000,,2013-01-09 05:53:00,
2013-01-09 01:00:00,36.0,26.0,-100.00,NNE,22,9.0,-999.0,65,-99.99,,,-99.99,0.000000,,2013-01-09 06:00:00,
2013-01-09 01:42:00,36.0,26.0,-100.00,NNE,22,9.0,-999.0,65,-99.99,,,-99.99,0.000000,,2013-01-09 06:42:00,
2013-01-09 01:52:00,36.0,26.0,-100.00,NNE,22,9.0,-999.0,65,-99.99,,,-99.99,0.000000,,2013-01-09 06:52:00,
2013-01-09 02:00:00,38.0,27.0,-100.00,NNE,22,11.0,-999.0,63,-99.99,,,-99.99,0.000000,,2013-01-09 07:00:00,
2013-01-09 02:32:00,38.0,27.0,-100.00,NNE,22,11.0,-999.0,63,-99.99,,,-99.99,0.000000,,2013-01-09 07:32:00,
2013-01-09 02:42:00,38.0,27.0,-100.00,NNE,22,11.0,-999.0,63,-99.99,,,-99.99,0.000000,,2013-01-09 07:42:00,
2013-01-09 02:52:00,38.0,27.0,-100.00,NNE,22,11.0,-999.0,63,-99.99,,,-99.99,0.000000,,2013-01-09 07:52:00,
2013-01-09 04:00:00,39.0,28.0,-100.00,North,0,9.0,-999.0,64,-99.99,,,-99.99,0.000000,,2013-01-09 09:00:00,
2013-01-09 04:42:00,39.0,28.0,-100.00,North,0,9.0,-999.0,64,-99.99,,,-99.99,0.000000,,2013-01-09 09:42:00,
2013-01-09 04:53:00,39.0,28.0,-100.00,North,0,9.0,-999.0,64,-99.99,,,-99.99,0.000000,,2013-01-09 09:53:00,
2013-01-09 05:00:00,39.0,30.0,-100.00,North,0,9.0,-999.0,69,-99.99,,,-99.99,0.000000,,2013-01-09 10:00:00,
2013-01-09 05:42:00,39.0,30.0,-100.00,North,0,9.0,-999.0,69,-99.99,,,-99.99,0.000000,,2013-01-09 10:42:00,
2013-01-09 05:52:00,39.0,30.0,-100.00,North,0,9.0,-999.0,69,-99.99,,,-99.99,0.000000,,2013-01-09 10:52:00,
2013-01-09 06:00:00,40.0,30.0,-100.00,North,0,9.0,-999.0,67,-99.99,,,-99.99,0.000000,,2013-01-09 11:00:00,
2013-01-09 06:43:00,40.0,30.0,-100.00,North,0,9.0,-999.0,67,-99.99,,,-99.99,0.000000,,2013-01-09 11:43:00,
2013-01-09 06:53:00,40.0,30.0,-100.00,North,0,9.0,-999.0,67,-99.99,,,-99.99,0.000000,,2013-01-09 11:53:00,
2013-01-09 07:00:00,40.0,30.0,-100.00,SW,225,12.0,-999.0,68,-99.99,,,-99.99,0.000000,,2013-01-09 12:00:00,
2013-01-09 07:43:00,40.0,30.0,-100.00,SW,225,12.0,-999.0,68,-99.99,,,-99.99,0.000000,,2013-01-09 12:43:00,
2013-01-09 07:53:00,40.0,30.0,-100.00,SW,225,12.0,-999.0,68,-99.99,,,-99.99,0.000000,,2013-01-09 12:53:00,
2013-01-09 08:00:00,38.0,30.0,-100.00,ENE,67,13.0,-999.0,72,-99.99,,,-99.99,0.000000,,2013-01-09 13:00:00,
2013-01-09 08:33:00,38.0,30.0,-100.00,ENE,67,13.0,-999.0,72,-99.99,,,-99.99,0.000000,,2013-01-09 13:33:00,
2013-01-09 08:43:00,38.0,30.0,-100.00,ENE,67,13.0,-999.0,72,-99.99,,,-99.99,0.000000,,2013-01-09 13:43:00,
2013-01-09 08:53:00,38.0,30.0,-100.00,ENE,67,13.0,-999.0,72,-99.99,,,-99.99,0.000000,,2013-01-09 13:53:00,
2013-01-09 09:00:00,38.0,30.0,-100.00,SSE,157,14.0,-999.0,74,-99.99,,,-99.99,19.719999,,2013-01-09 14:00:00,
2013-01-09 09:43:00,38.0,30.0,-100.00,SSE,157,14.0,-999.0,74,-99.99,,,-99.99,19.719999,,2013-01-09 14:43:00,
2013-01-09 09:53:00,38.0,30.0,-100.00,SSE,157,14.0,-999.0,74,-99.99,,,-99.99,19.719999,,2013-01-09 14:53:00,
2013-01-09 10:00:00,38.0,30.0,-100.00,NNW,337,12.0,-999.0,72,-99.99,,,-99.99,119.480003,,2013-01-09 15:00:00,
2013-01-09 10:43:00,38.0,30.0,-100.00,NNW,337,12.0,-999.0,72,-99.99,,,-99.99,119.480003,,2013-01-09 15:43:00,
2013-01-09 10:53:00,38.0,30.0,-100.00,NNW,337,12.0,-999.0,72,-99.99,,,-99.99,119.480003,,2013-01-09 15:53:00,
2013-01-09 11:00:00,39.0,30.0,-100.00,NNW,337,12.0,-999.0,68,-99.99,,,-99.99,241.279999,,2013-01-09 16:00:00,
2013-01-09 11:43:00,39.0,30.0,-100.00,NNW,337,12.0,-999.0,68,-99.99,,,-99.99,241.279999,,2013-01-09 16:43:00,
2013-01-09 11:53:00,39.0,30.0,-100.00,NNW,337,12.0,-999.0,68,-99.99,,,-99.99,241.279999,,2013-01-09 16:53:00,
2013-01-09 12:00:00,40.0,30.0,-100.00,NNW,337,12.0,-999.0,65,-99.99,,,-99.99,329.440002,,2013-01-09 17:00:00,
2013-01-09 12:43:00,40.0,30.0,-100.00,NNW,337,12.0,-999.0,65,-99.99,,,-99.99,329.440002,,2013-01-09 17:43:00,
2013-01-09 12:53:00,40.0,30.0,-100.00,NNW,337,12.0,-999.0,65,-99.99,,,-99.99,329.440002,,2013-01-09 17:53:00,
2013-01-09 13:00:00,42.0,29.0,-100.00,NW,315,16.0,-999.0,61,-99.99,,,-99.99,382.799988,,2013-01-09 18:00:00,
2013-01-09 13:33:00,42.0,29.0,-100.00,NW,315,16.0,-999.0,61,-99.99,,,-99.99,382.799988,,2013-01-09 18:33:00,
2013-01-09 13:43:00,42.0,29.0,-100.00,NW,315,16.0,-999.0,61,-99.99,,,-99.99,382.799988,,2013-01-09 18:43:00,
2013-01-09 13:53:00,42.0,29.0,-100.00,NW,315,16.0,-999.0,61,-99.99,,,-99.99,382.799988,,2013-01-09 18:53:00,
2013-01-09 15:00:00,45.0,28.0,-100.00,WSW,247,17.0,-999.0,51,-99.99,,,-99.99,327.119995,,2013-01-09 20:00:00,
2013-01-09 15:43:00,45.0,28.0,-100.00,WSW,247,17.0,-999.0,51,-99.99,,,-99.99,327.119995,,2013-01-09 20:43:00,
2013-01-09 15:53:00,45.0,28.0,-100.00,WSW,247,17.0,-999.0,51,-99.99,,,-99.99,327.119995,,2013-01-09 20:53:00,
2013-01-09 16:00:00,45.0,26.0,-100.00,SW,225,16.0,-999.0,47,-99.99,,,-99.99,191.399994,,2013-01-09 21:00:00,
2013-01-09 16:43:00,45.0,26.0,-100.00,SW,225,16.0,-999.0,47,-99.99,,,-99.99,191.399994,,2013-01-09 21:43:00,
2013-01-09 16:53:00,45.0,26.0,-100.00,SW,225,16.0,-999.0,47,-99.99,,,-99.99,191.399994,,2013-01-09 21:53:00,
2013-01-09 17:00:00,44.0,24.0,-100.00,WSW,247,16.0,-999.0,45,-99.99,,,-99.99,89.320000,,2013-01-09 22:00:00,
2013-01-09 17:23:00,44.0,24.0,-100.00,WSW,247,16.0,-999.0,45,-99.99,,,-99.99,89.320000,,2013-01-09 22:23:00,
2013-01-09 17:33:00,44.0,24.0,-100.00,WSW,247,16.0,-999.0,45,-99.99,,,-99.99,89.320000,,2013-01-09 22:33:00,
2013-01-09 17:43:00,44.0,24.0,-100.00,WSW,247,16.0,-999.0,45,-99.99,,,-99.99,89.320000,,2013-01-09 22:43:00,
2013-01-09 17:52:00,44.0,24.0,-100.00,WSW,247,16.0,-999.0,45,-99.99,,,-99.99,89.320000,,2013-01-09 22:52:00,
2013-01-09 18:00:00,41.0,24.0,-100.00,SW,225,13.0,-999.0,49,-99.99,,,-99.99,11.600000,,2013-01-09 23:00:00,
2013-01-09 18:43:00,41.0,24.0,-100.00,SW,225,13.0,-999.0,49,-99.99,,,-99.99,11.600000,,2013-01-09 23:43:00,
2013-01-09 18:53:00,41.0,24.0,-100.00,SW,225,13.0,-999.0,49,-99.99,,,-99.99,11.600000,,2013-01-09 23:53:00,
2013-01-09 19:00:00,40.0,24.0,-100.00,SW,225,11.0,-999.0,52,-99.99,,,-99.99,0.000000,,2013-01-10 00:00:00,
2013-01-09 19:43:00,40.0,24.0,-100.00,SW,225,11.0,-999.0,52,-99.99,,,-99.99,0.000000,,2013-01-10 00:43:00,
2013-01-09 19:53:00,40.0,24.0,-100.00,SW,225,11.0,-999.0,52,-99.99,,,-99.99,0.000000,,2013-01-10 00:53:00,
2013-01-09 20:00:00,39.0,24.0,-100.00,SW,225,11.0,-999.0,54,-99.99,,,-99.99,0.000000,,2013-01-10 01:00:00,
2013-01-09 20:43:00,39.0,24.0,-100.00,SW,225,11.0,-999.0,54,-99.99,,,-99.99,0.000000,,2013-01-10 01:43:00,
2013-01-09 20:53:00,39.0,24.0,-100.00,SW,225,11.0,-999.0,54,-99.99,,,-99.99,0.000000,,2013-01-10 01:53:00,
2013-01-09 21:00:00,38.0,25.0,-100.00,SW,225,9.0,-999.0,60,-99.99,,,-99.99,0.000000,,2013-01-10 02:00:00,
2013-01-09 22:00:00,38.0,25.0,-100.00,SW,225,9.0,-999.0,59,-99.99,,,-99.99,0.000000,,2013-01-10 03:00:00,
2013-01-09 22:43:00,38.0,25.0,-100.00,SW,225,9.0,-999.0,59,-99.99,,,-99.99,0.000000,,2013-01-10 03:43:00,
2013-01-09 22:53:00,38.0,25.0,-100.00,SW,225,9.0,-999.0,59,-99.99,,,-99.99,0.000000,,2013-01-10 03:53:00,
2013-01-09 23:00:00,36.0,25.0,-100.00,SW,225,3.0,-999.0,64,-99.99,,,-99.99,0.000000,,2013-01-10 04:00:00,
2013-01-09 23:43:00,36.0,25.0,-100.00,SW,225,3.0,-999.0,64,-99.99,,,-99.99,0.000000,,2013-01-10 04:43:00,
2013-01-09 23:52:00,36.0,25.0,-100.00,SW,225,3.0,-999.0,64,-99.99,,,-99.99,0.000000,,2013-01-10 04:52:00,